createdAt,value
2022-10-04T00:00:34.944Z,4.70
2022-10-04T00:03:10.303Z,4.80
2022-10-04T00:05:38.965Z,4.80
2022-10-04T00:08:42.279Z,4.80
2022-10-04T00:11:25.498Z,4.80
2022-10-04T00:14:17.401Z,4.80
2022-10-04T00:16:44.691Z,4.70
2022-10-04T00:19:20.253Z,4.60
2022-10-04T00:21:53.373Z,4.60
2022-10-04T00:24:26.374Z,4.60
2022-10-04T00:26:52.998Z,4.60
2022-10-04T00:29:34.770Z,4.60
2022-10-04T00:32:10.522Z,4.70
2022-10-04T00:34:49.424Z,4.90
2022-10-04T00:37:18.291Z,4.80
2022-10-04T00:40:04.941Z,4.80
2022-10-04T00:43:02.898Z,4.90
2022-10-04T00:45:58.417Z,4.90
2022-10-04T00:48:34.542Z,4.80
2022-10-04T00:51:19.156Z,4.70
2022-10-04T00:54:23.459Z,4.70
2022-10-04T00:56:52.335Z,4.60
2022-10-04T00:59:50.325Z,4.70
2022-10-04T01:02:27.515Z,4.50
2022-10-04T01:05:06.656Z,4.40
2022-10-04T01:07:41.883Z,4.50
2022-10-04T01:10:13.516Z,4.40
2022-10-04T01:12:48.722Z,4.40
2022-10-04T01:15:25.323Z,4.40
2022-10-04T01:18:10.958Z,4.40
2022-10-04T01:20:54.362Z,4.30
2022-10-04T01:23:36.829Z,4.40
2022-10-04T01:26:06.370Z,4.40
2022-10-04T01:28:35.531Z,4.30
2022-10-04T01:31:02.418Z,4.30
2022-10-04T01:33:29.987Z,4.20
2022-10-04T01:35:57.362Z,4.30
2022-10-04T01:38:24.113Z,4.30
2022-10-04T01:40:57.221Z,4.30
2022-10-04T01:43:29.845Z,4.30
2022-10-04T01:46:00.576Z,4.40
2022-10-04T01:48:32.233Z,4.40
2022-10-04T01:51:05.426Z,4.30
2022-10-04T01:53:40.725Z,4.30
2022-10-04T01:56:55.416Z,4.20
2022-10-04T01:59:27.677Z,4.20
2022-10-04T02:02:02.759Z,4.20
2022-10-04T02:04:36.688Z,4.30
2022-10-04T02:07:04.528Z,4.30
2022-10-04T02:09:38.596Z,4.20
2022-10-04T02:12:06.454Z,4.20
2022-10-04T02:14:36.482Z,4.20
2022-10-04T02:17:10.387Z,4.20
2022-10-04T02:19:41.610Z,4.40
2022-10-04T02:22:10.743Z,4.40
2022-10-04T02:24:42.446Z,4.40
2022-10-04T02:27:09.298Z,4.50
2022-10-04T02:29:36.103Z,4.40
2022-10-04T02:32:24.517Z,4.40
2022-10-04T02:34:52.431Z,4.30
2022-10-04T02:37:21.086Z,4.20
2022-10-04T02:40:11.014Z,4.20
2022-10-04T02:42:48.220Z,4.20
2022-10-04T02:45:32.009Z,4.10
2022-10-04T02:48:02.869Z,4.10
2022-10-04T02:50:58.963Z,4.10
2022-10-04T02:53:29.970Z,4.10
2022-10-04T02:55:58.030Z,4.00
2022-10-04T02:58:26.991Z,4.00
2022-10-04T03:00:59.975Z,4.10
2022-10-04T03:03:40.181Z,4.00
2022-10-04T03:06:19.924Z,3.90
2022-10-04T03:08:53.538Z,3.90
2022-10-04T03:11:23.652Z,3.80
2022-10-04T03:13:54.943Z,3.60
2022-10-04T03:16:22.132Z,3.70
2022-10-04T03:18:51.610Z,3.70
2022-10-04T03:21:21.506Z,3.70
2022-10-04T03:23:51.039Z,3.80
2022-10-04T03:26:32.981Z,3.90
2022-10-04T03:29:00.499Z,3.80
2022-10-04T03:31:28.655Z,3.90
2022-10-04T03:33:57.500Z,4.00
2022-10-04T03:36:26.669Z,4.00
2022-10-04T03:38:56.848Z,4.00
2022-10-04T03:41:25.719Z,4.00
2022-10-04T03:43:54.837Z,4.10
2022-10-04T03:46:23.339Z,4.10
2022-10-04T03:48:52.540Z,4.10
2022-10-04T03:51:22.171Z,4.10
2022-10-04T03:53:52.480Z,4.10
2022-10-04T03:56:25.478Z,4.00
2022-10-04T03:58:52.713Z,3.90
2022-10-04T04:01:34.685Z,3.80
2022-10-04T04:04:03.299Z,3.80
2022-10-04T04:06:43.341Z,3.90
2022-10-04T04:09:35.929Z,4.00
2022-10-04T04:12:10.241Z,3.90
2022-10-04T04:14:38.863Z,3.80
2022-10-04T04:17:25.502Z,3.80
2022-10-04T04:19:54.409Z,3.80
2022-10-04T04:22:21.496Z,3.60
2022-10-04T04:24:50.341Z,3.60
2022-10-04T04:27:18.656Z,3.60
2022-10-04T04:29:54.982Z,3.60
2022-10-04T04:32:32.169Z,3.70
2022-10-04T04:35:06.836Z,3.70
2022-10-04T04:37:35.727Z,3.60
2022-10-04T04:40:21.326Z,3.40
2022-10-04T04:42:49.751Z,3.30
2022-10-04T04:45:25.594Z,3.20
2022-10-04T04:47:55.997Z,3.20
2022-10-04T04:50:25.997Z,3.20
2022-10-04T04:53:08.293Z,3.20
2022-10-04T04:56:05.212Z,3.30
2022-10-04T04:58:46.093Z,3.30
2022-10-04T05:01:28.778Z,3.30
2022-10-04T05:04:02.302Z,3.40
2022-10-04T05:06:30.638Z,3.30
2022-10-04T05:08:57.300Z,3.40
2022-10-04T05:11:29.989Z,3.30
2022-10-04T05:14:06.751Z,3.30
2022-10-04T05:16:44.992Z,3.30
2022-10-04T05:19:28.723Z,3.40
2022-10-04T05:21:58.188Z,3.40
2022-10-04T05:24:31.694Z,3.40
2022-10-04T05:27:06.650Z,3.30
2022-10-04T05:29:37.558Z,3.20
2022-10-04T05:32:27.905Z,3.30
2022-10-04T05:34:55.096Z,3.30
2022-10-04T05:37:45.415Z,3.20
2022-10-04T05:40:15.011Z,3.20
2022-10-04T05:42:45.670Z,3.30
2022-10-04T05:45:19.907Z,3.40
2022-10-04T05:47:50.632Z,3.40
2022-10-04T05:50:21.457Z,3.40
2022-10-04T05:52:51.252Z,3.40
2022-10-04T05:55:32.265Z,3.50
2022-10-04T05:58:18.263Z,3.60
2022-10-04T06:01:10.397Z,3.60
2022-10-04T06:03:37.137Z,3.60
2022-10-04T06:06:28.709Z,3.50
2022-10-04T06:09:29.096Z,3.60
2022-10-04T06:12:09.632Z,3.70
2022-10-04T06:15:13.242Z,3.70
2022-10-04T06:18:35.393Z,3.90
2022-10-04T06:21:19.961Z,4.10
2022-10-04T06:24:03.274Z,4.10
2022-10-04T06:26:38.299Z,4.10
2022-10-04T06:29:11.124Z,4.10
2022-10-04T06:32:20.421Z,4.20
2022-10-04T06:34:56.991Z,4.20
2022-10-04T06:38:04.887Z,4.20
2022-10-04T06:40:54.158Z,4.30
2022-10-04T06:43:34.713Z,4.40
2022-10-04T06:46:22.761Z,4.50
2022-10-04T06:48:56.718Z,4.40
2022-10-04T06:51:47.205Z,4.50
2022-10-04T06:54:22.812Z,4.70
2022-10-04T06:57:31.486Z,4.80
2022-10-04T07:00:08.018Z,5.00
2022-10-04T07:02:42.091Z,5.20
2022-10-04T07:05:16.072Z,5.40
2022-10-04T07:07:47.600Z,5.60
2022-10-04T07:10:31.279Z,5.80
2022-10-04T07:13:04.004Z,5.80
2022-10-04T07:16:04.372Z,6.00
2022-10-04T07:18:54.745Z,6.10
2022-10-04T07:21:26.154Z,6.20
2022-10-04T07:23:58.778Z,6.40
2022-10-04T07:26:25.338Z,6.60
2022-10-04T07:29:12.853Z,6.70
2022-10-04T07:31:41.676Z,6.90
2022-10-04T07:34:18.294Z,7.10
2022-10-04T07:37:00.396Z,7.20
2022-10-04T07:39:50.909Z,7.30
2022-10-04T07:42:32.222Z,7.40
2022-10-04T07:45:40.484Z,7.50
2022-10-04T07:48:15.109Z,7.60
2022-10-04T07:51:00.904Z,7.70
2022-10-04T07:53:37.262Z,7.80
2022-10-04T07:56:21.096Z,8.00
2022-10-04T07:58:54.547Z,8.10
2022-10-04T08:01:24.097Z,8.10
2022-10-04T08:04:04.980Z,8.10
2022-10-04T08:06:52.683Z,8.10
2022-10-04T08:09:41.137Z,8.20
2022-10-04T08:12:22.922Z,8.40
2022-10-04T08:15:14.395Z,8.30
2022-10-04T08:17:53.039Z,8.50
2022-10-04T08:20:59.550Z,8.70
2022-10-04T08:23:44.774Z,8.90
2022-10-04T08:26:20.277Z,9.00
2022-10-04T08:29:05.569Z,9.00
2022-10-04T08:32:06.101Z,8.90
2022-10-04T08:34:51.959Z,9.10
2022-10-04T08:37:37.513Z,9.40
2022-10-04T08:40:44.061Z,9.70
2022-10-04T08:43:41.584Z,9.90
2022-10-04T08:46:52.955Z,10.10
2022-10-04T08:49:54.391Z,10.10
2022-10-04T08:52:51.920Z,10.20
2022-10-04T08:55:35.141Z,10.20
2022-10-04T08:58:27.683Z,10.20
2022-10-04T09:01:25.431Z,10.20
2022-10-04T09:04:30.112Z,10.30
2022-10-04T09:07:09.015Z,10.40
2022-10-04T09:10:13.667Z,10.60
2022-10-04T09:13:01.554Z,10.80
2022-10-04T09:15:44.816Z,11.00
2022-10-04T09:18:40.668Z,11.20
2022-10-04T09:21:47.378Z,11.20
2022-10-04T09:24:56.740Z,11.40
2022-10-04T09:27:53.761Z,11.40
2022-10-04T09:30:21.271Z,11.50
2022-10-04T09:33:15.393Z,11.70
2022-10-04T09:35:50.911Z,11.70
2022-10-04T09:38:40.159Z,11.90
2022-10-04T09:41:40.769Z,11.90
2022-10-04T09:44:30.731Z,12.00
2022-10-04T09:47:15.116Z,12.10
2022-10-04T09:50:03.610Z,12.20
2022-10-04T09:52:49.123Z,12.30
2022-10-04T09:55:42.237Z,12.40
2022-10-04T09:58:30.012Z,12.40
2022-10-04T10:01:09.654Z,12.50
2022-10-04T10:04:13.496Z,12.60
2022-10-04T10:07:05.280Z,12.70
2022-10-04T10:10:20.896Z,12.50
2022-10-04T10:13:28.752Z,12.50
2022-10-04T10:16:09.915Z,12.70
2022-10-04T10:18:58.391Z,12.80
2022-10-04T10:21:53.167Z,12.90
2022-10-04T10:24:56.159Z,13.10
2022-10-04T10:27:40.150Z,13.10
2022-10-04T10:30:25.792Z,13.20
2022-10-04T10:33:21.480Z,13.20
2022-10-04T10:36:17.043Z,13.40
2022-10-04T10:39:17.508Z,13.50
2022-10-04T10:41:51.310Z,13.60
2022-10-04T10:44:20.475Z,13.70
2022-10-04T10:47:08.408Z,13.70
2022-10-04T10:49:44.336Z,13.90
2022-10-04T10:52:42.347Z,14.00
2022-10-04T10:55:36.757Z,14.20
2022-10-04T10:58:36.594Z,14.30
2022-10-04T11:01:35.748Z,14.40
2022-10-04T11:04:32.730Z,14.30
2022-10-04T11:07:30.270Z,14.20
2022-10-04T11:10:29.244Z,14.40
2022-10-04T11:13:18.647Z,14.50
2022-10-04T11:16:04.018Z,14.60
2022-10-04T11:18:58.591Z,14.70
2022-10-04T11:21:41.892Z,14.90
2022-10-04T11:24:30.225Z,15.10
2022-10-04T11:27:34.436Z,15.10
2022-10-04T11:30:17.344Z,15.00
2022-10-04T11:33:29.403Z,15.00
2022-10-04T11:36:20.349Z,15.20
2022-10-04T11:39:04.604Z,15.30
2022-10-04T11:41:43.080Z,15.40
2022-10-04T11:44:41.987Z,15.40
2022-10-04T11:47:41.345Z,15.60
2022-10-04T11:50:29.617Z,15.80
2022-10-04T11:53:30.424Z,15.90
2022-10-04T11:56:16.873Z,16.10
2022-10-04T11:59:12.455Z,16.20
2022-10-04T12:02:10.662Z,16.30
2022-10-04T12:04:58.521Z,16.50
2022-10-04T12:07:44.111Z,16.70
2022-10-04T12:10:36.226Z,16.80
2022-10-04T12:13:19.888Z,17.00
2022-10-04T12:15:49.364Z,17.10
2022-10-04T12:18:37.704Z,17.10
2022-10-04T12:21:42.039Z,17.00
2022-10-04T12:24:39.903Z,17.10
2022-10-04T12:27:39.038Z,17.10
2022-10-04T12:30:12.017Z,17.10
2022-10-04T12:32:58.159Z,17.20
2022-10-04T12:35:46.147Z,17.00
2022-10-04T12:38:32.075Z,17.10
2022-10-04T12:41:04.831Z,17.40
2022-10-04T12:43:50.110Z,17.60
2022-10-04T12:46:47.178Z,17.80
2022-10-04T12:49:47.416Z,18.00
2022-10-04T12:52:21.144Z,18.10
2022-10-04T12:55:09.207Z,18.20
2022-10-04T12:57:57.226Z,18.20
2022-10-04T13:00:26.014Z,18.20
2022-10-04T13:02:55.863Z,18.40
2022-10-04T13:06:07.750Z,18.60
2022-10-04T13:08:49.879Z,18.90
2022-10-04T13:11:39.796Z,18.90
2022-10-04T13:14:18.482Z,18.90
2022-10-04T13:20:22.519Z,18.90
2022-10-04T13:23:19.184Z,19.20
2022-10-04T13:26:04.712Z,19.60
2022-10-04T13:29:08.390Z,19.80
2022-10-04T13:31:48.805Z,19.90
2022-10-04T13:34:29.376Z,19.70
2022-10-04T13:37:15.049Z,19.80
2022-10-04T13:39:47.832Z,19.90
2022-10-04T13:42:39.729Z,20.00
2022-10-04T13:45:21.375Z,20.20
2022-10-04T13:48:23.400Z,20.00
2022-10-04T13:51:14.548Z,19.90
2022-10-04T13:54:17.548Z,19.90
2022-10-04T13:56:53.466Z,19.90
2022-10-04T13:59:26.624Z,19.80
2022-10-04T14:02:18.837Z,19.60
2022-10-04T14:05:15.392Z,19.60
2022-10-04T14:08:06.447Z,19.50
2022-10-04T14:10:58.923Z,19.30
2022-10-04T14:13:44.298Z,19.20
2022-10-04T14:16:35.680Z,19.60
2022-10-04T14:19:22.770Z,20.40
2022-10-04T14:22:04.253Z,20.90
2022-10-04T14:24:47.905Z,21.50
2022-10-04T14:27:29.041Z,22.00
2022-10-04T14:30:06.162Z,23.40
2022-10-04T14:32:45.812Z,24.70
2022-10-04T14:35:35.308Z,25.90
2022-10-04T14:38:11.108Z,26.60
2022-10-04T14:40:59.707Z,26.70
2022-10-04T14:43:54.676Z,26.60
2022-10-04T14:46:37.624Z,26.30
2022-10-04T14:49:04.519Z,26.40
2022-10-04T14:51:37.675Z,26.40
2022-10-04T14:54:32.590Z,27.00
2022-10-04T14:57:13.150Z,27.70
2022-10-04T15:00:11.458Z,27.70
2022-10-04T15:02:52.074Z,28.10
2022-10-04T15:05:44.368Z,28.40
2022-10-04T15:08:10.948Z,28.80
2022-10-04T15:10:48.079Z,28.80
2022-10-04T15:13:33.094Z,28.30
2022-10-04T15:16:33.751Z,28.30
2022-10-04T15:19:34.949Z,28.40
2022-10-04T15:22:35.882Z,28.20
2022-10-04T15:25:23.833Z,28.00
2022-10-04T15:27:56.001Z,28.90
2022-10-04T15:30:46.388Z,28.70
2022-10-04T15:33:32.768Z,28.50
2022-10-04T15:36:02.264Z,28.90
2022-10-04T15:38:38.914Z,28.60
2022-10-04T15:41:30.610Z,28.30
2022-10-04T15:44:13.915Z,28.00
2022-10-04T15:46:45.091Z,27.10
2022-10-04T15:49:53.353Z,26.20
2022-10-04T15:52:49.286Z,24.70
2022-10-04T15:55:33.965Z,23.90
2022-10-04T15:58:28.000Z,23.70
2022-10-04T16:01:20.989Z,24.10
2022-10-04T16:04:13.796Z,24.60
2022-10-04T16:07:06.233Z,25.00
2022-10-04T16:09:32.812Z,24.90
2022-10-04T16:12:19.320Z,24.70
2022-10-04T16:15:32.787Z,23.70
2022-10-04T16:18:58.111Z,21.80
2022-10-04T16:21:33.496Z,20.50
2022-10-04T16:24:18.048Z,19.40
2022-10-04T16:26:45.031Z,18.50
2022-10-04T16:29:29.245Z,18.00
2022-10-04T16:32:13.158Z,17.70
2022-10-04T16:35:00.422Z,17.30
2022-10-04T16:37:39.113Z,16.90
2022-10-04T16:40:35.947Z,16.50
2022-10-04T16:43:11.208Z,16.10
2022-10-04T16:46:02.525Z,15.70
2022-10-04T16:48:39.115Z,15.50
2022-10-04T16:51:05.794Z,15.30
2022-10-04T16:54:00.036Z,14.90
2022-10-04T16:56:51.489Z,14.60
2022-10-04T16:59:38.408Z,14.30
2022-10-04T17:02:43.375Z,13.90
2022-10-04T17:05:47.235Z,13.70
2022-10-04T17:08:16.978Z,13.60
2022-10-04T17:10:49.476Z,13.40
2022-10-04T17:13:23.316Z,13.40
2022-10-04T17:16:02.822Z,13.30
2022-10-04T17:18:55.418Z,13.10
2022-10-04T17:21:32.477Z,13.00
2022-10-04T17:24:08.846Z,12.70
2022-10-04T17:26:44.134Z,12.60
2022-10-04T17:29:53.628Z,12.40
2022-10-04T17:32:28.312Z,12.30
2022-10-04T17:35:22.846Z,12.20
2022-10-04T17:38:09.173Z,12.10
2022-10-04T17:41:13.358Z,12.00
2022-10-04T17:44:03.525Z,11.80
2022-10-04T17:46:58.657Z,11.70
2022-10-04T17:50:04.825Z,11.70
2022-10-04T17:52:59.957Z,11.60
2022-10-04T17:55:43.917Z,11.50
2022-10-04T17:58:25.767Z,11.40
2022-10-04T18:00:55.282Z,11.30
2022-10-04T18:03:37.171Z,11.30
2022-10-04T18:06:39.577Z,11.10
2022-10-04T18:09:20.462Z,11.00
2022-10-04T18:11:58.591Z,10.90
2022-10-04T18:14:56.213Z,10.90
2022-10-04T18:17:48.019Z,10.80
2022-10-04T18:20:32.088Z,10.70
2022-10-04T18:23:16.058Z,10.60
2022-10-04T18:25:43.311Z,10.60
2022-10-04T18:28:09.962Z,10.50
2022-10-04T18:30:48.963Z,10.40
2022-10-04T18:33:17.370Z,10.30
2022-10-04T18:36:00.868Z,10.20
2022-10-04T18:38:33.293Z,10.00
2022-10-04T18:41:20.432Z,10.00
2022-10-04T18:43:51.325Z,9.90
2022-10-04T18:46:23.190Z,9.90
2022-10-04T18:48:55.790Z,9.80
2022-10-04T18:51:22.414Z,9.70
2022-10-04T18:54:06.382Z,9.70
2022-10-04T18:56:47.814Z,9.60
2022-10-04T18:59:59.848Z,9.70
2022-10-04T19:02:46.372Z,9.50
2022-10-04T19:05:26.003Z,9.50
2022-10-04T19:08:08.029Z,9.50
2022-10-04T19:10:43.765Z,9.50
2022-10-04T19:13:16.395Z,9.40
2022-10-04T19:16:04.741Z,9.40
2022-10-04T19:18:56.029Z,9.30
2022-10-04T19:21:49.483Z,9.10
2022-10-04T19:24:43.758Z,9.00
2022-10-04T19:27:17.954Z,9.00
2022-10-04T19:30:15.287Z,9.00
2022-10-04T19:32:59.387Z,9.00
2022-10-04T19:35:46.737Z,9.10
2022-10-04T19:38:42.628Z,8.90
2022-10-04T19:41:29.157Z,8.80
2022-10-04T19:44:05.509Z,8.80
2022-10-04T19:46:57.429Z,8.70
2022-10-04T19:49:40.486Z,8.60
2022-10-04T19:52:21.928Z,8.50
2022-10-04T19:54:59.174Z,8.50
2022-10-04T19:57:37.621Z,8.40
2022-10-04T20:00:12.749Z,8.50
2022-10-04T20:02:48.405Z,8.50
2022-10-04T20:05:24.505Z,8.40
2022-10-04T20:07:55.965Z,8.50
2022-10-04T20:10:33.710Z,8.50
2022-10-04T20:13:21.371Z,8.40
2022-10-04T20:15:50.491Z,8.30
2022-10-04T20:18:32.261Z,8.30
2022-10-04T20:21:00.171Z,8.20
2022-10-04T20:23:39.181Z,8.20
2022-10-04T20:26:09.828Z,8.20
2022-10-04T20:28:41.498Z,8.00
2022-10-04T20:31:10.694Z,7.90
2022-10-04T20:33:40.658Z,7.90
2022-10-04T20:36:10.190Z,8.00
2022-10-04T20:38:53.793Z,7.90
2022-10-04T20:41:29.415Z,7.90
2022-10-04T20:43:58.180Z,7.80
2022-10-04T20:46:26.766Z,7.80
2022-10-04T20:48:54.935Z,7.70
2022-10-04T20:51:24.016Z,7.50
2022-10-04T20:53:51.030Z,7.50
2022-10-04T20:56:24.531Z,7.40
2022-10-04T20:58:53.780Z,7.40
2022-10-04T21:01:32.055Z,7.40
2022-10-04T21:04:33.082Z,7.40
2022-10-04T21:07:02.694Z,7.40
2022-10-04T21:09:36.636Z,7.40
2022-10-04T21:12:04.939Z,7.30
2022-10-04T21:14:38.519Z,7.30
2022-10-04T21:17:28.177Z,7.40
2022-10-04T21:19:54.981Z,7.40
2022-10-04T21:22:33.097Z,7.40
2022-10-04T21:25:27.660Z,7.40
2022-10-04T21:27:54.402Z,7.30
2022-10-04T21:30:22.865Z,7.20
2022-10-04T21:32:49.587Z,7.10
2022-10-04T21:35:16.231Z,7.00
2022-10-04T21:37:42.898Z,6.90
2022-10-04T21:40:09.841Z,6.90
2022-10-04T21:42:36.571Z,7.00
2022-10-04T21:45:03.625Z,6.90
2022-10-04T21:47:30.317Z,6.80
2022-10-04T21:49:57.303Z,6.70
2022-10-04T21:52:24.067Z,6.60
2022-10-04T21:54:50.710Z,6.50
2022-10-04T21:57:17.372Z,6.50
2022-10-04T21:59:44.026Z,6.60
2022-10-04T22:02:10.718Z,6.50
2022-10-04T22:04:38.123Z,6.60
2022-10-04T22:07:05.013Z,6.60
2022-10-04T22:09:33.115Z,6.80
2022-10-04T22:11:59.841Z,6.90
2022-10-04T22:14:26.524Z,6.80
2022-10-04T22:16:53.233Z,6.70
2022-10-04T22:19:19.942Z,6.50
2022-10-04T22:21:46.616Z,6.40
2022-10-04T22:24:18.536Z,6.30
2022-10-04T22:26:45.863Z,6.30
2022-10-04T22:29:17.429Z,6.40
2022-10-04T22:31:50.603Z,6.40
2022-10-04T22:34:20.304Z,6.30
2022-10-04T22:36:49.345Z,6.30
2022-10-04T22:39:18.634Z,6.20
2022-10-04T22:41:47.814Z,6.20
2022-10-04T22:44:18.464Z,6.20
2022-10-04T22:46:51.344Z,6.20
2022-10-04T22:49:21.898Z,6.20
2022-10-04T22:51:51.578Z,6.30
2022-10-04T22:54:24.462Z,6.40
2022-10-04T22:56:52.609Z,6.30
2022-10-04T22:59:22.939Z,6.30
2022-10-04T23:01:49.743Z,6.30
2022-10-04T23:04:24.964Z,6.20
2022-10-04T23:06:53.063Z,6.10
2022-10-04T23:09:20.482Z,6.00
2022-10-04T23:11:47.382Z,5.90
2022-10-04T23:14:14.085Z,5.90
2022-10-04T23:16:40.849Z,5.90
2022-10-04T23:19:13.512Z,5.90
2022-10-04T23:21:42.951Z,6.00
2022-10-04T23:24:12.614Z,6.00
2022-10-04T23:26:40.058Z,5.90
2022-10-04T23:29:14.670Z,5.80
2022-10-04T23:31:41.506Z,5.80
2022-10-04T23:34:24.008Z,5.80
2022-10-04T23:36:51.962Z,5.80
2022-10-04T23:39:25.649Z,5.80
2022-10-04T23:41:54.608Z,5.80
2022-10-04T23:44:24.302Z,5.70
2022-10-04T23:46:51.906Z,5.70
2022-10-04T23:49:22.519Z,5.70
2022-10-04T23:51:52.962Z,5.80
2022-10-04T23:54:20.282Z,5.70
2022-10-04T23:56:47.826Z,5.70
2022-10-04T23:59:20.093Z,5.60
